sensor_id;sensor_type;location;lat;lon;timestamp;pressure;altitude;pressure_sealevel;temperature;humidity
64889;BME280;51386;53.082;8.816;2024-01-16T00:00:32;100227.84;;;5.13;66.19
64889;BME280;51386;53.082;8.816;2024-01-16T00:03:00;100238.56;;;5.10;66.21
64889;BME280;51386;53.082;8.816;2024-01-16T00:05:28;100248.34;;;5.08;66.24
64889;BME280;51386;53.082;8.816;2024-01-16T00:07:57;100256.16;;;5.08;66.40
64889;BME280;51386;53.082;8.816;2024-01-16T00:10:27;100249.31;;;5.07;66.58
64889;BME280;51386;53.082;8.816;2024-01-16T00:12:56;100256.97;;;5.09;66.53
64889;BME280;51386;53.082;8.816;2024-01-16T00:15:24;100248.34;;;5.08;66.44
64889;BME280;51386;53.082;8.816;2024-01-16T00:17:53;100249.31;;;5.07;66.56
64889;BME280;51386;53.082;8.816;2024-01-16T00:20:21;100248.47;;;5.07;66.62
64889;BME280;51386;53.082;8.816;2024-01-16T00:22:51;100251.25;;;5.05;66.66
64889;BME280;51386;53.082;8.816;2024-01-16T00:25:20;100262.78;;;5.03;66.65
64889;BME280;51386;53.082;8.816;2024-01-16T00:27:48;100263.91;;;5.00;66.81
64889;BME280;51386;53.082;8.816;2024-01-16T00:30:17;100264.75;;;5.01;67.02
64889;BME280;51386;53.082;8.816;2024-01-16T00:32:45;100269.94;;;5.01;67.02
64889;BME280;51386;53.082;8.816;2024-01-16T00:35:15;100266.34;;;5.02;67.22
64889;BME280;51386;53.082;8.816;2024-01-16T00:37:43;100281.22;;;5.01;67.12
64889;BME280;51386;53.082;8.816;2024-01-16T00:40:12;100275.00;;;5.02;66.83
64889;BME280;51386;53.082;8.816;2024-01-16T00:42:40;100282.69;;;5.04;67.08
64889;BME280;51386;53.082;8.816;2024-01-16T00:45:09;100286.94;;;5.05;67.27
64889;BME280;51386;53.082;8.816;2024-01-16T00:47:37;100292.81;;;5.07;67.26
64889;BME280;51386;53.082;8.816;2024-01-16T00:50:06;100285.81;;;5.07;66.87
64889;BME280;51386;53.082;8.816;2024-01-16T00:52:35;100284.97;;;5.07;67.16
64889;BME280;51386;53.082;8.816;2024-01-16T00:55:04;100284.97;;;5.07;67.40
64889;BME280;51386;53.082;8.816;2024-01-16T00:57:33;100291.03;;;5.07;67.31
64889;BME280;51386;53.082;8.816;2024-01-16T01:00:01;100284.19;;;5.06;67.25
64889;BME280;51386;53.082;8.816;2024-01-16T01:02:31;100284.19;;;5.06;67.36
64889;BME280;51386;53.082;8.816;2024-01-16T01:05:00;100291.03;;;5.07;67.31
64889;BME280;51386;53.082;8.816;2024-01-16T01:07:28;100292.69;;;5.08;67.45
64889;BME280;51386;53.082;8.816;2024-01-16T01:09:57;100298.84;;;5.07;67.33
64889;BME280;51386;53.082;8.816;2024-01-16T01:12:25;100297.34;;;5.05;67.35
64889;BME280;51386;53.082;8.816;2024-01-16T01:14:54;100298.47;;;5.02;67.32
64889;BME280;51386;53.082;8.816;2024-01-16T01:17:22;100305.34;;;5.03;67.54
64889;BME280;51386;53.082;8.816;2024-01-16T01:19:51;100316.88;;;5.01;67.79
64889;BME280;51386;53.082;8.816;2024-01-16T01:22:19;100320.63;;;4.98;67.41
64889;BME280;51386;53.082;8.816;2024-01-16T01:24:48;100320.91;;;4.95;67.53
64889;BME280;51386;53.082;8.816;2024-01-16T01:27:16;100317.91;;;4.90;67.73
64889;BME280;51386;53.082;8.816;2024-01-16T01:29:44;100318.91;;;4.89;67.78
64889;BME280;51386;53.082;8.816;2024-01-16T01:32:13;100324.56;;;4.85;67.53
64889;BME280;51386;53.082;8.816;2024-01-16T01:34:42;100329.22;;;4.81;67.66
64889;BME280;51386;53.082;8.816;2024-01-16T01:37:10;100337.34;;;4.78;67.73
64889;BME280;51386;53.082;8.816;2024-01-16T01:39:39;100342.56;;;4.78;67.91
64889;BME280;51386;53.082;8.816;2024-01-16T01:42:07;100349.41;;;4.79;67.76
64889;BME280;51386;53.082;8.816;2024-01-16T01:44:36;100353.81;;;4.78;67.75
64889;BME280;51386;53.082;8.816;2024-01-16T01:47:05;100341.31;;;4.82;67.66
64889;BME280;51386;53.082;8.816;2024-01-16T01:49:35;100345.53;;;4.83;67.79
64889;BME280;51386;53.082;8.816;2024-01-16T01:52:05;100345.53;;;4.83;67.60
64889;BME280;51386;53.082;8.816;2024-01-16T01:54:36;100345.53;;;4.83;67.49
64889;BME280;51386;53.082;8.816;2024-01-16T01:57:07;100350.75;;;4.83;67.31
64889;BME280;51386;53.082;8.816;2024-01-16T01:59:36;100355.16;;;4.82;67.18
64889;BME280;51386;53.082;8.816;2024-01-16T02:02:11;100370.00;;;4.82;67.16
64889;BME280;51386;53.082;8.816;2024-01-16T02:04:41;100387.25;;;4.83;66.97
64889;BME280;51386;53.082;8.816;2024-01-16T02:07:12;100387.41;;;4.82;67.11
64889;BME280;51386;53.082;8.816;2024-01-16T02:09:43;100381.53;;;4.79;67.18
64889;BME280;51386;53.082;8.816;2024-01-16T02:12:12;100385.25;;;4.77;66.98
64889;BME280;51386;53.082;8.816;2024-01-16T02:14:40;100395.13;;;4.73;67.38
64889;BME280;51386;53.082;8.816;2024-01-16T02:17:09;100390.34;;;4.69;67.17
64889;BME280;51386;53.082;8.816;2024-01-16T02:19:38;100387.34;;;4.64;67.19
64889;BME280;51386;53.082;8.816;2024-01-16T02:22:16;100385.50;;;4.56;67.30
64889;BME280;51386;53.082;8.816;2024-01-16T02:24:49;100385.91;;;4.52;67.30
64889;BME280;51386;53.082;8.816;2024-01-16T02:27:18;100386.66;;;4.44;67.42
64889;BME280;51386;53.082;8.816;2024-01-16T02:29:49;100393.25;;;4.39;67.30
64889;BME280;51386;53.082;8.816;2024-01-16T02:32:17;100396.00;;;4.37;67.43
64889;BME280;51386;53.082;8.816;2024-01-16T02:34:46;100404.78;;;4.36;67.58
64889;BME280;51386;53.082;8.816;2024-01-16T02:37:14;100409.97;;;4.36;67.78
64889;BME280;51386;53.082;8.816;2024-01-16T02:39:43;100409.16;;;4.36;67.71
64889;BME280;51386;53.082;8.816;2024-01-16T02:42:11;100410.66;;;4.38;67.70
64889;BME280;51386;53.082;8.816;2024-01-16T02:44:40;100399.28;;;4.39;67.74
64889;BME280;51386;53.082;8.816;2024-01-16T02:47:09;100396.53;;;4.41;67.80
64889;BME280;51386;53.082;8.816;2024-01-16T02:49:38;100405.00;;;4.43;67.73
64889;BME280;51386;53.082;8.816;2024-01-16T02:52:08;100398.19;;;4.42;67.78
64889;BME280;51386;53.082;8.816;2024-01-16T02:54:36;100392.16;;;4.41;67.72
64889;BME280;51386;53.082;8.816;2024-01-16T02:57:05;100406.13;;;4.40;68.01
64889;BME280;51386;53.082;8.816;2024-01-16T02:59:33;100412.44;;;4.38;68.04
64889;BME280;51386;53.082;8.816;2024-01-16T03:02:01;100414.09;;;4.39;67.87
64889;BME280;51386;53.082;8.816;2024-01-16T03:04:31;100417.66;;;4.38;68.17
64889;BME280;51386;53.082;8.816;2024-01-16T03:06:59;100420.25;;;4.38;68.07
64889;BME280;51386;53.082;8.816;2024-01-16T03:09:28;100407.38;;;4.36;68.08
64889;BME280;51386;53.082;8.816;2024-01-16T03:11:56;100413.69;;;4.34;68.15
64889;BME280;51386;53.082;8.816;2024-01-16T03:14:25;100410.00;;;4.27;67.89
64889;BME280;51386;53.082;8.816;2024-01-16T03:16:54;100413.88;;;4.23;67.81
64889;BME280;51386;53.082;8.816;2024-01-16T03:19:22;100409.38;;;4.15;67.81
64889;BME280;51386;53.082;8.816;2024-01-16T03:21:50;100408.97;;;4.10;68.09
64889;BME280;51386;53.082;8.816;2024-01-16T03:24:19;100412.00;;;4.05;68.11
64889;BME280;51386;53.082;8.816;2024-01-16T03:26:48;100410.34;;;4.04;67.93
64889;BME280;51386;53.082;8.816;2024-01-16T03:29:16;100403.50;;;4.03;68.20
64889;BME280;51386;53.082;8.816;2024-01-16T03:31:44;100407.75;;;4.04;68.25
64889;BME280;51386;53.082;8.816;2024-01-16T03:34:13;100407.91;;;4.03;67.87
64889;BME280;51386;53.082;8.816;2024-01-16T03:36:42;100408.31;;;3.98;67.75
64889;BME280;51386;53.082;8.816;2024-01-16T03:39:10;100407.25;;;3.91;67.69
64889;BME280;51386;53.082;8.816;2024-01-16T03:41:40;100410.69;;;3.82;67.78
64889;BME280;51386;53.082;8.816;2024-01-16T03:44:08;100409.59;;;3.75;67.50
64889;BME280;51386;53.082;8.816;2024-01-16T03:46:36;100417.28;;;3.67;67.52
64889;BME280;51386;53.082;8.816;2024-01-16T03:49:05;100409.06;;;3.62;67.91
64889;BME280;51386;53.082;8.816;2024-01-16T03:51:33;100404.94;;;3.60;68.11
64889;BME280;51386;53.082;8.816;2024-01-16T03:54:02;100408.63;;;3.57;68.24
64889;BME280;51386;53.082;8.816;2024-01-16T03:56:30;100403.84;;;3.53;67.72
64889;BME280;51386;53.082;8.816;2024-01-16T03:58:59;100405.94;;;3.49;67.82
64889;BME280;51386;53.082;8.816;2024-01-16T04:01:34;100408.94;;;3.45;67.72
64889;BME280;51386;53.082;8.816;2024-01-16T04:04:04;100408.38;;;3.41;67.66
64889;BME280;51386;53.082;8.816;2024-01-16T04:06:34;100419.34;;;3.35;67.90
64889;BME280;51386;53.082;8.816;2024-01-16T04:09:03;100421.38;;;3.31;68.01
64889;BME280;51386;53.082;8.816;2024-01-16T04:11:32;100421.78;;;3.27;68.01
64889;BME280;51386;53.082;8.816;2024-01-16T04:14:01;100423.81;;;3.23;68.14
64889;BME280;51386;53.082;8.816;2024-01-16T04:16:29;100417.00;;;3.22;68.24
64889;BME280;51386;53.082;8.816;2024-01-16T04:18:58;100424.22;;;3.19;67.95
64889;BME280;51386;53.082;8.816;2024-01-16T04:21:27;100422.59;;;3.18;67.83
64889;BME280;51386;53.082;8.816;2024-01-16T04:23:55;100415.06;;;3.15;68.29
64889;BME280;51386;53.082;8.816;2024-01-16T04:26:24;100413.41;;;3.14;68.07
64889;BME280;51386;53.082;8.816;2024-01-16T04:28:52;100412.63;;;3.13;68.28
64889;BME280;51386;53.082;8.816;2024-01-16T04:31:21;100411.09;;;3.11;68.28
64889;BME280;51386;53.082;8.816;2024-01-16T04:33:50;100412.03;;;3.10;67.97
64889;BME280;51386;53.082;8.816;2024-01-16T04:36:18;100405.22;;;3.09;68.03
64889;BME280;51386;53.082;8.816;2024-01-16T04:38:47;100403.56;;;3.08;67.98
64889;BME280;51386;53.082;8.816;2024-01-16T04:41:18;100400.28;;;3.06;67.92
64889;BME280;51386;53.082;8.816;2024-01-16T04:43:47;100397.84;;;3.04;67.89
64889;BME280;51386;53.082;8.816;2024-01-16T04:46:17;100404.13;;;3.02;67.98
64889;BME280;51386;53.082;8.816;2024-01-16T04:48:46;100405.06;;;3.01;68.03
64889;BME280;51386;53.082;8.816;2024-01-16T04:51:14;100409.59;;;2.99;68.08
64889;BME280;51386;53.082;8.816;2024-01-16T04:53:43;100414.78;;;2.99;68.08
64889;BME280;51386;53.082;8.816;2024-01-16T04:56:11;100412.19;;;2.99;68.12
64889;BME280;51386;53.082;8.816;2024-01-16T04:58:40;100413.94;;;2.98;68.11
64889;BME280;51386;53.082;8.816;2024-01-16T05:01:09;100413.13;;;2.98;68.24
64889;BME280;51386;53.082;8.816;2024-01-16T05:03:37;100408.91;;;2.97;68.44
64889;BME280;51386;53.082;8.816;2024-01-16T05:06:13;100411.50;;;2.97;68.23
64889;BME280;51386;53.082;8.816;2024-01-16T05:08:43;100404.50;;;2.97;68.26
64889;BME280;51386;53.082;8.816;2024-01-16T05:11:11;100404.63;;;2.96;68.36
64889;BME280;51386;53.082;8.816;2024-01-16T05:13:40;100409.59;;;2.99;68.58
64889;BME280;51386;53.082;8.816;2024-01-16T05:16:09;100409.59;;;2.99;68.70
64889;BME280;51386;53.082;8.816;2024-01-16T05:18:41;100418.88;;;3.01;68.63
64889;BME280;51386;53.082;8.816;2024-01-16T05:21:10;100423.00;;;3.04;68.44
64889;BME280;51386;53.082;8.816;2024-01-16T05:23:38;100430.25;;;3.10;68.41
64889;BME280;51386;53.082;8.816;2024-01-16T05:26:07;100426.28;;;3.15;68.40
64889;BME280;51386;53.082;8.816;2024-01-16T05:28:35;100430.00;;;3.22;68.69
64889;BME280;51386;53.082;8.816;2024-01-16T05:31:04;100430.00;;;3.32;69.08
64889;BME280;51386;53.082;8.816;2024-01-16T05:33:32;100433.44;;;3.42;68.85
64889;BME280;51386;53.082;8.816;2024-01-16T05:36:00;100434.53;;;3.49;68.35
64889;BME280;51386;53.082;8.816;2024-01-16T05:38:30;100425.50;;;3.53;68.19
64889;BME280;51386;53.082;8.816;2024-01-16T05:40:58;100427.81;;;3.56;68.28
64889;BME280;51386;53.082;8.816;2024-01-16T05:43:27;100424.56;;;3.54;68.01
64889;BME280;51386;53.082;8.816;2024-01-16T05:45:56;100421.22;;;3.52;67.86
64889;BME280;51386;53.082;8.816;2024-01-16T05:48:25;100418.09;;;3.49;67.90
64889;BME280;51386;53.082;8.816;2024-01-16T05:50:56;100430.28;;;3.48;67.79
64889;BME280;51386;53.082;8.816;2024-01-16T05:53:24;100418.38;;;3.46;67.47
64889;BME280;51386;53.082;8.816;2024-01-16T05:55:52;100413.16;;;3.46;67.85
64889;BME280;51386;53.082;8.816;2024-01-16T05:58:22;100414.81;;;3.47;67.80
64889;BME280;51386;53.082;8.816;2024-01-16T06:00:51;100438.09;;;3.48;67.94
64889;BME280;51386;53.082;8.816;2024-01-16T06:03:19;100433.56;;;3.50;67.95
64889;BME280;51386;53.082;8.816;2024-01-16T06:05:48;100428.78;;;3.55;67.93
64889;BME280;51386;53.082;8.816;2024-01-16T06:08:16;100424.81;;;3.61;67.85
64889;BME280;51386;53.082;8.816;2024-01-16T06:10:45;100425.22;;;3.66;67.73
64889;BME280;51386;53.082;8.816;2024-01-16T06:13:14;100422.47;;;3.67;67.38
64889;BME280;51386;53.082;8.816;2024-01-16T06:15:42;100420.53;;;3.69;67.32
64889;BME280;51386;53.082;8.816;2024-01-16T06:18:10;100418.94;;;3.68;67.52
64889;BME280;51386;53.082;8.816;2024-01-16T06:20:39;100423.16;;;3.69;67.24
64889;BME280;51386;53.082;8.816;2024-01-16T06:23:07;100417.13;;;3.69;67.37
64889;BME280;51386;53.082;8.816;2024-01-16T06:25:36;100423.81;;;3.71;67.53
64889;BME280;51386;53.082;8.816;2024-01-16T06:28:05;100431.63;;;3.71;67.48
64889;BME280;51386;53.082;8.816;2024-01-16T06:30:35;100429.03;;;3.71;67.48
64889;BME280;51386;53.082;8.816;2024-01-16T06:33:04;100425.47;;;3.72;67.42
64889;BME280;51386;53.082;8.816;2024-01-16T06:35:33;100426.16;;;3.74;67.54
64889;BME280;51386;53.082;8.816;2024-01-16T06:38:02;100420.00;;;3.75;67.37
64889;BME280;51386;53.082;8.816;2024-01-16T06:40:30;100413.97;;;3.75;67.37
64889;BME280;51386;53.082;8.816;2024-01-16T06:42:58;100406.28;;;3.73;67.42
64889;BME280;51386;53.082;8.816;2024-01-16T06:45:27;100406.28;;;3.73;67.63
64889;BME280;51386;53.082;8.816;2024-01-16T06:47:55;100400.28;;;3.73;67.54
64889;BME280;51386;53.082;8.816;2024-01-16T06:50:24;100404.94;;;3.69;67.79
64889;BME280;51386;53.082;8.816;2024-01-16T06:52:52;100409.47;;;3.67;67.63
64889;BME280;51386;53.082;8.816;2024-01-16T06:55:21;100396.72;;;3.64;67.93
64889;BME280;51386;53.082;8.816;2024-01-16T06:57:49;100397.28;;;3.58;67.62
64889;BME280;51386;53.082;8.816;2024-01-16T07:00:17;100403.75;;;3.54;67.92
64889;BME280;51386;53.082;8.816;2024-01-16T07:02:46;100400.56;;;3.51;68.09
64889;BME280;51386;53.082;8.816;2024-01-16T07:05:14;100415.34;;;3.50;68.25
64889;BME280;51386;53.082;8.816;2024-01-16T07:07:43;100416.19;;;3.51;68.31
64889;BME280;51386;53.082;8.816;2024-01-16T07:10:11;100422.22;;;3.51;68.40
64889;BME280;51386;53.082;8.816;2024-01-16T07:12:46;100421.38;;;3.51;68.07
64889;BME280;51386;53.082;8.816;2024-01-16T07:15:15;100414.16;;;3.54;68.43
64889;BME280;51386;53.082;8.816;2024-01-16T07:17:43;100421.53;;;3.59;68.80
64889;BME280;51386;53.082;8.816;2024-01-16T07:20:12;100422.06;;;3.62;68.66
64889;BME280;51386;53.082;8.816;2024-01-16T07:22:41;100425.22;;;3.66;68.47
64889;BME280;51386;53.082;8.816;2024-01-16T07:25:09;100433.44;;;3.61;68.08
64889;BME280;51386;53.082;8.816;2024-01-16T07:27:37;100432.31;;;3.64;68.25
64889;BME280;51386;53.082;8.816;2024-01-16T07:30:07;100442.59;;;3.65;68.07
64889;BME280;51386;53.082;8.816;2024-01-16T07:32:35;100449.44;;;3.66;68.21
64889;BME280;51386;53.082;8.816;2024-01-16T07:35:04;100446.84;;;3.66;67.76
64889;BME280;51386;53.082;8.816;2024-01-16T07:37:33;100441.94;;;3.63;67.94
64889;BME280;51386;53.082;8.816;2024-01-16T07:40:02;100449.44;;;3.66;67.94
64889;BME280;51386;53.082;8.816;2024-01-16T07:42:33;100446.03;;;3.66;68.03
64889;BME280;51386;53.082;8.816;2024-01-16T07:45:03;100444.78;;;3.70;68.06
64889;BME280;51386;53.082;8.816;2024-01-16T07:47:33;100434.25;;;3.71;67.77
64889;BME280;51386;53.082;8.816;2024-01-16T07:50:01;100432.03;;;3.76;68.13
64889;BME280;51386;53.082;8.816;2024-01-16T07:52:34;100423.03;;;3.80;67.94
64889;BME280;51386;53.082;8.816;2024-01-16T07:55:02;100432.03;;;3.86;68.02
64889;BME280;51386;53.082;8.816;2024-01-16T07:57:31;100428.88;;;3.92;68.04
64889;BME280;51386;53.082;8.816;2024-01-16T08:00:00;100438.88;;;3.96;67.59
64889;BME280;51386;53.082;8.816;2024-01-16T08:02:32;100436.94;;;3.98;67.69
64889;BME280;51386;53.082;8.816;2024-01-16T08:05:02;100438.56;;;3.99;67.42
64889;BME280;51386;53.082;8.816;2024-01-16T08:07:31;100440.22;;;4.00;67.30
64889;BME280;51386;53.082;8.816;2024-01-16T08:09:59;100447.88;;;4.02;67.32
64889;BME280;51386;53.082;8.816;2024-01-16T08:12:28;100452.84;;;4.05;67.56
64889;BME280;51386;53.082;8.816;2024-01-16T08:14:56;100454.34;;;4.07;67.14
64889;BME280;51386;53.082;8.816;2024-01-16T08:17:24;100456.66;;;4.10;67.42
64889;BME280;51386;53.082;8.816;2024-01-16T08:19:53;100465.97;;;4.13;67.06
64889;BME280;51386;53.082;8.816;2024-01-16T08:22:21;100464.88;;;4.16;67.31
64889;BME280;51386;53.082;8.816;2024-01-16T08:24:50;100462.94;;;4.18;66.99
64889;BME280;51386;53.082;8.816;2024-01-16T08:27:19;100464.56;;;4.19;66.67
64889;BME280;51386;53.082;8.816;2024-01-16T08:29:47;100470.59;;;4.29;66.96
64889;BME280;51386;53.082;8.816;2024-01-16T08:32:19;100452.09;;;4.32;66.91
64889;BME280;51386;53.082;8.816;2024-01-16T08:34:47;100457.97;;;4.34;66.90
64889;BME280;51386;53.082;8.816;2024-01-16T08:37:16;100466.47;;;4.36;66.54
64889;BME280;51386;53.082;8.816;2024-01-16T08:39:44;100475.09;;;4.36;66.42
64889;BME280;51386;53.082;8.816;2024-01-16T08:42:12;100474.94;;;4.38;66.43
64889;BME280;51386;53.082;8.816;2024-01-16T08:44:41;100473.72;;;4.42;66.48
64889;BME280;51386;53.082;8.816;2024-01-16T08:47:09;100479.34;;;4.47;66.41
64889;BME280;51386;53.082;8.816;2024-01-16T08:49:38;100474.66;;;4.50;66.41
64889;BME280;51386;53.082;8.816;2024-01-16T08:52:06;100482.88;;;4.55;66.32
64889;BME280;51386;53.082;8.816;2024-01-16T08:54:35;100474.88;;;4.57;66.19
64889;BME280;51386;53.082;8.816;2024-01-16T08:57:03;100470.91;;;4.62;66.09
64889;BME280;51386;53.082;8.816;2024-01-16T08:59:32;100470.75;;;4.64;65.91
64889;BME280;51386;53.082;8.816;2024-01-16T09:02:00;100478.28;;;4.67;65.90
64889;BME280;51386;53.082;8.816;2024-01-16T09:04:29;100471.03;;;4.70;66.01
64889;BME280;51386;53.082;8.816;2024-01-16T09:06:57;100479.22;;;4.75;65.78
64889;BME280;51386;53.082;8.816;2024-01-16T09:09:26;100459.72;;;4.79;66.15
64889;BME280;51386;53.082;8.816;2024-01-16T09:11:54;100472.31;;;4.84;65.63
64889;BME280;51386;53.082;8.816;2024-01-16T09:14:22;100473.66;;;4.88;65.79
64889;BME280;51386;53.082;8.816;2024-01-16T09:16:51;100482.03;;;4.92;65.80
64889;BME280;51386;53.082;8.816;2024-01-16T09:19:21;100478.00;;;4.97;65.80
64889;BME280;51386;53.082;8.816;2024-01-16T09:21:49;100474.44;;;4.98;65.55
64889;BME280;51386;53.082;8.816;2024-01-16T09:24:18;100478.41;;;5.02;65.56
64889;BME280;51386;53.082;8.816;2024-01-16T09:26:47;100476.34;;;5.06;65.35
64889;BME280;51386;53.082;8.816;2024-01-16T09:29:15;100482.38;;;5.06;65.34
64889;BME280;51386;53.082;8.816;2024-01-16T09:31:44;100485.66;;;5.08;65.03
64889;BME280;51386;53.082;8.816;2024-01-16T09:34:12;100477.00;;;5.08;64.98
64889;BME280;51386;53.082;8.816;2024-01-16T09:36:42;100469.34;;;5.06;65.05
64889;BME280;51386;53.082;8.816;2024-01-16T09:39:10;100485.66;;;5.08;65.09
64889;BME280;51386;53.082;8.816;2024-01-16T09:41:41;100486.16;;;5.12;64.80
64889;BME280;51386;53.082;8.816;2024-01-16T09:44:10;100480.94;;;5.12;64.85
64889;BME280;51386;53.082;8.816;2024-01-16T09:46:41;100481.50;;;5.15;64.72
64889;BME280;51386;53.082;8.816;2024-01-16T09:49:15;100481.50;;;5.15;64.58
64889;BME280;51386;53.082;8.816;2024-01-16T09:51:46;100479.84;;;5.14;64.51
64889;BME280;51386;53.082;8.816;2024-01-16T09:54:15;100476.28;;;5.15;64.59
64889;BME280;51386;53.082;8.816;2024-01-16T09:56:51;100479.56;;;5.17;64.50
64889;BME280;51386;53.082;8.816;2024-01-16T09:59:21;100482.56;;;5.22;64.38
64889;BME280;51386;53.082;8.816;2024-01-16T10:01:54;100478.97;;;5.23;64.50
64889;BME280;51386;53.082;8.816;2024-01-16T10:04:23;100481.28;;;5.26;64.35
64889;BME280;51386;53.082;8.816;2024-01-16T10:06:54;100489.09;;;5.26;64.14
64889;BME280;51386;53.082;8.816;2024-01-16T10:09:24;100492.94;;;5.32;64.44
64889;BME280;51386;53.082;8.816;2024-01-16T10:11:54;100480.78;;;5.40;64.24
64889;BME280;51386;53.082;8.816;2024-01-16T10:14:24;100483.16;;;5.52;63.99
64889;BME280;51386;53.082;8.816;2024-01-16T10:17:02;100490.13;;;5.61;64.15
64889;BME280;51386;53.082;8.816;2024-01-16T10:19:50;100494.44;;;5.70;63.58
64889;BME280;51386;53.082;8.816;2024-01-16T10:22:22;100489.00;;;5.81;63.73
64889;BME280;51386;53.082;8.816;2024-01-16T10:25:12;100487.81;;;5.93;63.28
64889;BME280;51386;53.082;8.816;2024-01-16T10:27:44;100489.06;;;6.06;63.13
64889;BME280;51386;53.082;8.816;2024-01-16T10:30:13;100487.34;;;6.15;62.82
64889;BME280;51386;53.082;8.816;2024-01-16T10:32:43;100483.81;;;6.24;62.36
64889;BME280;51386;53.082;8.816;2024-01-16T10:35:13;100496.25;;;6.30;62.31
64889;BME280;51386;53.082;8.816;2024-01-16T10:37:44;100490.44;;;6.36;62.10
64889;BME280;51386;53.082;8.816;2024-01-16T10:40:18;100498.09;;;6.38;61.84
64889;BME280;51386;53.082;8.816;2024-01-16T10:43:03;100503.03;;;6.41;61.84
64889;BME280;51386;53.082;8.816;2024-01-16T10:45:33;100504.06;;;6.48;61.88
64889;BME280;51386;53.082;8.816;2024-01-16T10:48:06;100504.25;;;6.54;61.42
64889;BME280;51386;53.082;8.816;2024-01-16T10:50:37;100501.03;;;6.60;61.70
64889;BME280;51386;53.082;8.816;2024-01-16T10:53:07;100498.09;;;6.63;61.10
64889;BME280;51386;53.082;8.816;2024-01-16T10:55:51;100500.06;;;6.61;61.20
64889;BME280;51386;53.082;8.816;2024-01-16T10:58:22;100500.88;;;6.62;61.11
64889;BME280;51386;53.082;8.816;2024-01-16T11:00:54;100503.31;;;6.63;60.76
64889;BME280;51386;53.082;8.816;2024-01-16T11:03:46;100496.19;;;6.65;61.17
64889;BME280;51386;53.082;8.816;2024-01-16T11:06:21;100504.34;;;6.70;60.89
64889;BME280;51386;53.082;8.816;2024-01-16T11:08:52;100507.66;;;6.72;60.67
64889;BME280;51386;53.082;8.816;2024-01-16T11:11:23;100515.13;;;6.67;60.21
64889;BME280;51386;53.082;8.816;2024-01-16T11:13:52;100519.34;;;6.60;60.35
64889;BME280;51386;53.082;8.816;2024-01-16T11:16:23;100516.38;;;6.55;60.40
64889;BME280;51386;53.082;8.816;2024-01-16T11:18:52;100514.41;;;6.57;60.39
64889;BME280;51386;53.082;8.816;2024-01-16T11:21:24;100517.38;;;6.62;60.63
64889;BME280;51386;53.082;8.816;2024-01-16T11:23:53;100521.97;;;6.60;60.22
64889;BME280;51386;53.082;8.816;2024-01-16T11:26:29;100513.75;;;6.55;60.25
64889;BME280;51386;53.082;8.816;2024-01-16T11:31:57;100516.28;;;6.39;60.39
64889;BME280;51386;53.082;8.816;2024-01-16T11:37:30;100518.38;;;6.18;60.57
64889;BME280;51386;53.082;8.816;2024-01-16T11:42:51;100503.41;;;6.02;61.09
64889;BME280;51386;53.082;8.816;2024-01-16T11:50:42;100503.50;;;5.93;61.09
64889;BME280;51386;53.082;8.816;2024-01-16T11:53:39;100497.50;;;5.83;61.36
64889;BME280;51386;53.082;8.816;2024-01-16T11:56:41;100507.72;;;5.76;61.44
64889;BME280;51386;53.082;8.816;2024-01-16T11:59:58;100509.13;;;5.71;61.48
64889;BME280;51386;53.082;8.816;2024-01-16T12:02:53;100521.84;;;5.66;61.88
64889;BME280;51386;53.082;8.816;2024-01-16T12:05:24;100523.16;;;5.70;61.86
64889;BME280;51386;53.082;8.816;2024-01-16T12:07:53;100513.00;;;5.67;61.74
64889;BME280;51386;53.082;8.816;2024-01-16T12:10:24;100517.28;;;5.68;61.96
64889;BME280;51386;53.082;8.816;2024-01-16T12:12:58;100512.72;;;5.70;62.03
64889;BME280;51386;53.082;8.816;2024-01-16T12:15:31;100507.50;;;5.70;61.83
64889;BME280;51386;53.082;8.816;2024-01-16T12:18:03;100503.25;;;5.69;61.90
64889;BME280;51386;53.082;8.816;2024-01-16T12:20:48;100492.13;;;5.67;62.10
64889;BME280;51386;53.082;8.816;2024-01-16T12:23:17;100488.56;;;5.68;62.11
64889;BME280;51386;53.082;8.816;2024-01-16T12:25:46;100481.09;;;5.73;62.29
64889;BME280;51386;53.082;8.816;2024-01-16T12:28:29;100489.28;;;5.78;62.34
64889;BME280;51386;53.082;8.816;2024-01-16T12:31:00;100484.59;;;5.81;62.04
64889;BME280;51386;53.082;8.816;2024-01-16T12:33:29;100486.25;;;5.82;61.96
64889;BME280;51386;53.082;8.816;2024-01-16T12:36:03;100476.59;;;5.83;62.05
64889;BME280;51386;53.082;8.816;2024-01-16T12:38:33;100479.91;;;5.85;62.10
64889;BME280;51386;53.082;8.816;2024-01-16T12:41:05;100474.97;;;5.82;62.08
64889;BME280;51386;53.082;8.816;2024-01-16T12:43:37;100480.19;;;5.82;62.02
64889;BME280;51386;53.082;8.816;2024-01-16T12:46:05;100474.00;;;5.83;62.53
64889;BME280;51386;53.082;8.816;2024-01-16T12:48:35;100473.56;;;5.87;62.22
64889;BME280;51386;53.082;8.816;2024-01-16T12:51:10;100472.78;;;5.87;62.27
64889;BME280;51386;53.082;8.816;2024-01-16T12:53:40;100468.50;;;5.86;62.23
64889;BME280;51386;53.082;8.816;2024-01-16T12:56:09;100467.53;;;5.87;62.37
64889;BME280;51386;53.082;8.816;2024-01-16T12:58:38;100463.66;;;5.91;62.52
64889;BME280;51386;53.082;8.816;2024-01-16T13:01:29;100463.28;;;5.86;62.36
64889;BME280;51386;53.082;8.816;2024-01-16T13:04:06;100460.38;;;5.89;62.39
64889;BME280;51386;53.082;8.816;2024-01-16T13:06:35;100460.22;;;5.90;62.54
64889;BME280;51386;53.082;8.816;2024-01-16T13:09:12;100456.78;;;5.90;62.33
64889;BME280;51386;53.082;8.816;2024-01-16T13:11:52;100453.22;;;5.91;62.38
64889;BME280;51386;53.082;8.816;2024-01-16T13:14:24;100455.81;;;5.91;62.34
64889;BME280;51386;53.082;8.816;2024-01-16T13:16:53;100455.66;;;5.92;62.70
64889;BME280;51386;53.082;8.816;2024-01-16T13:19:25;100452.59;;;5.97;62.77
64889;BME280;51386;53.082;8.816;2024-01-16T13:21:53;100455.56;;;6.02;62.64
64889;BME280;51386;53.082;8.816;2024-01-16T13:24:22;100452.66;;;6.05;62.58
64889;BME280;51386;53.082;8.816;2024-01-16T13:26:51;100456.59;;;6.09;62.77
64889;BME280;51386;53.082;8.816;2024-01-16T13:29:20;100446.38;;;6.16;62.60